createdAt,value
2022-10-11T00:00:09.476Z,83.98
2022-10-11T00:02:39.135Z,84.56
2022-10-11T00:05:10.515Z,84.25
2022-10-11T00:07:45.221Z,84.78
2022-10-11T00:10:14.640Z,84.43
2022-10-11T00:12:45.575Z,84.25
2022-10-11T00:15:18.244Z,84.73
2022-10-11T00:17:44.965Z,83.69
2022-10-11T00:20:13.088Z,83.53
2022-10-11T00:22:40.843Z,83.43
2022-10-11T00:25:09.360Z,83.54
2022-10-11T00:27:36.411Z,83.67
2022-10-11T00:30:05.123Z,83.80
2022-10-11T00:32:33.643Z,84.02
2022-10-11T00:35:04.679Z,83.48
2022-10-11T00:37:36.305Z,83.61
2022-10-11T00:40:06.558Z,83.39
2022-10-11T00:42:33.428Z,84.15
2022-10-11T00:45:27.993Z,84.43
2022-10-11T00:47:58.697Z,84.31
2022-10-11T00:50:32.358Z,84.06
2022-10-11T00:53:03.293Z,84.19
2022-10-11T00:55:34.404Z,84.06
2022-10-11T00:58:01.389Z,84.01
2022-10-11T01:00:27.986Z,83.81
2022-10-11T01:02:55.032Z,84.26
2022-10-11T01:05:30.327Z,84.33
2022-10-11T01:07:59.347Z,83.99
2022-10-11T01:10:27.169Z,84.02
2022-10-11T01:14:16.477Z,84.25
2022-10-11T01:20:35.265Z,83.62
2022-10-11T01:23:36.094Z,83.16
2022-10-11T01:26:27.139Z,83.68
2022-10-11T01:29:30.101Z,83.68
2022-10-11T01:32:06.983Z,83.20
2022-10-11T01:34:56.619Z,84.09
2022-10-11T01:37:33.274Z,83.04
2022-10-11T01:40:07.115Z,83.83
2022-10-11T01:42:36.798Z,82.68
2022-10-11T01:45:05.080Z,83.44
2022-10-11T01:47:53.418Z,82.97
2022-10-11T01:50:41.345Z,84.13
2022-10-11T01:53:50.790Z,83.07
2022-10-11T01:56:51.250Z,83.03
2022-10-11T01:59:37.920Z,83.97
2022-10-11T02:03:24.795Z,82.49
2022-10-11T02:06:19.670Z,83.88
2022-10-11T02:08:55.663Z,83.33
2022-10-11T02:15:22.044Z,82.94
2022-10-11T02:18:22.792Z,83.03
2022-10-11T02:21:21.158Z,83.30
2022-10-11T02:24:35.769Z,83.21
2022-10-11T02:27:35.360Z,82.21
2022-10-11T02:30:24.926Z,82.59
2022-10-11T02:33:00.182Z,82.29
2022-10-11T02:35:49.111Z,83.32
2022-10-11T02:38:41.140Z,82.90
2022-10-11T02:41:43.609Z,82.15
2022-10-11T02:44:27.296Z,82.30
2022-10-11T02:47:03.419Z,82.71
2022-10-11T02:49:46.907Z,82.84
2022-10-11T02:53:07.672Z,82.11
2022-10-11T02:56:08.475Z,83.07
2022-10-11T02:59:04.176Z,83.19
2022-10-11T03:02:16.816Z,82.03
2022-10-11T03:05:13.187Z,82.27
2022-10-11T03:08:06.870Z,82.80
2022-10-11T03:10:50.888Z,82.75
2022-10-11T03:13:23.176Z,82.93
2022-10-11T03:16:03.353Z,82.99
2022-10-11T03:18:31.897Z,83.58
2022-10-11T03:21:05.131Z,83.03
2022-10-11T03:23:37.051Z,83.73
2022-10-11T03:26:08.073Z,83.06
2022-10-11T03:28:38.288Z,83.04
2022-10-11T03:31:08.049Z,83.71
2022-10-11T03:33:34.782Z,83.97
2022-10-11T03:36:09.037Z,84.90
2022-10-11T03:38:38.491Z,84.35
2022-10-11T03:41:15.705Z,85.07
2022-10-11T03:43:43.634Z,85.07
2022-10-11T03:46:16.473Z,84.64
2022-10-11T03:48:48.866Z,84.99
2022-10-11T03:51:19.426Z,85.11
2022-10-11T03:53:56.764Z,85.33
2022-10-11T03:56:34.776Z,85.28
2022-10-11T03:59:04.358Z,84.82
2022-10-11T04:01:54.586Z,84.50
2022-10-11T04:04:22.847Z,84.65
2022-10-11T04:07:09.857Z,85.09
2022-10-11T04:09:41.993Z,84.75
2022-10-11T04:12:12.885Z,84.61
2022-10-11T04:14:45.767Z,83.79
2022-10-11T04:17:17.871Z,83.47
2022-10-11T04:19:44.893Z,83.61
2022-10-11T04:22:11.507Z,83.95
2022-10-11T04:25:11.059Z,83.26
2022-10-11T04:27:54.589Z,84.33
2022-10-11T04:30:33.307Z,83.63
2022-10-11T04:33:17.511Z,84.13
2022-10-11T04:36:17.713Z,84.51
2022-10-11T04:38:51.484Z,84.52
2022-10-11T04:41:32.708Z,83.69
2022-10-11T04:44:12.265Z,84.03
2022-10-11T04:46:38.761Z,83.81
2022-10-11T04:51:54.269Z,83.77
2022-10-11T04:54:23.665Z,83.33
2022-10-11T04:56:50.215Z,83.66
2022-10-11T04:59:20.101Z,84.07
2022-10-11T05:01:46.690Z,83.31
2022-10-11T05:04:13.500Z,84.25
2022-10-11T05:06:40.029Z,83.95
2022-10-11T05:09:06.660Z,84.03
2022-10-11T05:11:33.213Z,83.70
2022-10-11T05:13:59.974Z,83.91
2022-10-11T05:16:26.524Z,83.12
2022-10-11T05:18:53.209Z,83.70
2022-10-11T05:21:24.227Z,83.55
2022-10-11T05:23:52.249Z,83.42
2022-10-11T05:26:19.742Z,83.38
2022-10-11T05:28:47.168Z,83.22
2022-10-11T05:31:14.323Z,83.30
2022-10-11T05:33:41.031Z,82.75
2022-10-11T05:36:08.089Z,82.82
2022-10-11T05:38:35.548Z,82.89
2022-10-11T05:41:03.685Z,83.34
2022-10-11T05:43:30.985Z,82.29
2022-10-11T05:45:58.016Z,83.41
2022-10-11T05:48:26.552Z,82.84
2022-10-11T05:50:58.457Z,83.22
2022-10-11T05:53:24.944Z,82.74
2022-10-11T05:55:51.500Z,83.52
2022-10-11T05:58:18.647Z,82.57
2022-10-11T06:00:45.154Z,83.37
2022-10-11T06:03:13.056Z,83.29
2022-10-11T06:05:39.891Z,83.35
2022-10-11T06:08:08.610Z,83.77
2022-10-11T06:10:36.185Z,82.84
2022-10-11T06:13:06.355Z,82.96
2022-10-11T06:15:38.897Z,84.12
2022-10-11T06:18:19.794Z,83.20
2022-10-11T06:21:21.137Z,83.26
2022-10-11T06:23:54.571Z,82.81
2022-10-11T06:26:29.489Z,83.02
2022-10-11T06:28:56.999Z,84.06
2022-10-11T06:31:34.022Z,83.95
2022-10-11T06:34:00.556Z,83.16
2022-10-11T06:36:27.596Z,83.68
2022-10-11T06:39:00.931Z,84.08
2022-10-11T06:41:37.520Z,84.05
2022-10-11T06:44:14.279Z,83.45
2022-10-11T06:46:41.331Z,83.59
2022-10-11T06:49:08.289Z,84.45
2022-10-11T06:51:35.690Z,84.54
2022-10-11T06:54:02.828Z,84.47
2022-10-11T06:56:30.754Z,83.70
2022-10-11T06:58:58.848Z,84.56
2022-10-11T07:01:26.595Z,83.61
2022-10-11T07:03:55.066Z,83.56
2022-10-11T07:06:26.917Z,84.28
2022-10-11T07:08:54.254Z,83.87
2022-10-11T07:11:23.857Z,84.27
2022-10-11T07:13:55.553Z,84.27
2022-10-11T07:16:22.547Z,83.37
2022-10-11T07:18:58.738Z,84.07
2022-10-11T07:21:28.242Z,83.79
2022-10-11T07:23:54.919Z,83.81
2022-10-11T07:26:21.648Z,83.20
2022-10-11T07:28:48.396Z,83.46
2022-10-11T07:31:19.318Z,83.56
2022-10-11T07:33:46.400Z,82.40
2022-10-11T07:36:13.921Z,82.57
2022-10-11T07:38:45.502Z,82.61
2022-10-11T07:41:13.005Z,82.55
2022-10-11T07:43:39.620Z,81.32
2022-10-11T07:46:07.156Z,81.66
2022-10-11T07:48:36.032Z,81.92
2022-10-11T07:51:11.163Z,81.94
2022-10-11T07:53:42.281Z,81.75
2022-10-11T07:56:12.358Z,82.00
2022-10-11T07:58:39.840Z,81.60
2022-10-11T08:01:06.648Z,82.01
2022-10-11T08:03:33.247Z,81.02
2022-10-11T08:06:05.304Z,82.27
2022-10-11T08:08:32.378Z,81.53
2022-10-11T08:11:01.835Z,82.15
2022-10-11T08:13:29.903Z,81.46
2022-10-11T08:15:56.832Z,81.87
2022-10-11T08:18:23.672Z,81.19
2022-10-11T08:20:50.231Z,81.63
2022-10-11T08:23:17.898Z,82.35
2022-10-11T08:25:48.155Z,81.13
2022-10-11T08:28:17.449Z,81.15
2022-10-11T08:30:51.885Z,81.54
2022-10-11T08:33:19.169Z,81.94
2022-10-11T08:35:45.986Z,81.78
2022-10-11T08:38:12.767Z,81.95
2022-10-11T08:40:47.222Z,81.40
2022-10-11T08:43:44.746Z,79.74
2022-10-11T08:46:13.172Z,80.78
2022-10-11T08:48:49.104Z,80.76
2022-10-11T08:51:24.783Z,80.32
2022-10-11T08:53:56.935Z,80.41
2022-10-11T08:56:26.350Z,80.16
2022-10-11T08:59:08.228Z,79.86
2022-10-11T09:01:36.015Z,81.32
2022-10-11T09:04:03.630Z,79.83
2022-10-11T09:06:56.278Z,80.87
2022-10-11T09:09:51.329Z,79.70
2022-10-11T09:12:45.763Z,80.05
2022-10-11T09:15:15.137Z,79.56
2022-10-11T09:18:18.786Z,79.33
2022-10-11T09:21:13.163Z,79.63
2022-10-11T09:24:21.184Z,79.99
2022-10-11T09:27:10.339Z,79.47
2022-10-11T09:29:49.098Z,79.65
2022-10-11T09:32:23.140Z,80.05
2022-10-11T09:35:11.041Z,80.09
2022-10-11T09:38:02.138Z,80.61
2022-10-11T09:40:37.659Z,79.99
2022-10-11T09:43:04.321Z,79.69
2022-10-11T09:45:30.928Z,78.81
2022-10-11T09:48:01.415Z,78.90
2022-10-11T09:50:36.855Z,78.00
2022-10-11T09:53:07.707Z,78.43
2022-10-11T09:56:05.004Z,78.89
2022-10-11T09:58:34.366Z,78.47
2022-10-11T10:01:12.379Z,78.23
2022-10-11T10:03:44.022Z,78.99
2022-10-11T10:06:16.520Z,79.13
2022-10-11T10:08:45.477Z,77.52
2022-10-11T10:11:12.061Z,77.89
2022-10-11T10:13:51.561Z,78.01
2022-10-11T10:16:19.659Z,77.90
2022-10-11T10:18:55.566Z,77.53
2022-10-11T10:21:32.031Z,76.39
2022-10-11T10:24:03.169Z,77.10
2022-10-11T10:26:31.105Z,77.53
2022-10-11T10:28:57.613Z,76.91
2022-10-11T10:31:49.482Z,76.87
2022-10-11T10:34:31.485Z,76.17
2022-10-11T10:37:18.073Z,76.63
2022-10-11T10:40:28.929Z,76.02
2022-10-11T10:42:55.675Z,76.63
2022-10-11T10:45:31.411Z,76.32
2022-10-11T10:48:00.605Z,76.39
2022-10-11T10:50:38.570Z,76.89
2022-10-11T10:53:43.059Z,76.93
2022-10-11T10:56:19.345Z,75.91
2022-10-11T10:58:59.569Z,76.11
2022-10-11T11:01:36.816Z,76.14
2022-10-11T11:04:16.153Z,76.26
2022-10-11T11:06:48.576Z,76.73
2022-10-11T11:09:30.993Z,75.75
2022-10-11T11:12:18.415Z,76.13
2022-10-11T11:15:00.679Z,75.14
2022-10-11T11:17:44.442Z,74.71
2022-10-11T11:20:38.135Z,75.32
2022-10-11T11:23:12.425Z,74.65
2022-10-11T11:26:03.590Z,74.28
2022-10-11T11:28:56.869Z,74.90
2022-10-11T11:31:35.538Z,74.46
2022-10-11T11:34:09.823Z,74.52
2022-10-11T11:36:49.006Z,74.37
2022-10-11T11:39:25.101Z,75.14
2022-10-11T11:42:14.844Z,74.87
2022-10-11T11:44:49.952Z,75.56
2022-10-11T11:47:31.253Z,74.66
2022-10-11T11:50:07.462Z,75.16
2022-10-11T11:52:40.984Z,74.88
2022-10-11T11:55:16.531Z,74.64
2022-10-11T11:58:03.310Z,74.31
2022-10-11T12:00:48.938Z,75.24
2022-10-11T12:03:24.031Z,74.91
2022-10-11T12:06:12.423Z,74.39
2022-10-11T12:08:40.922Z,74.24
2022-10-11T12:11:20.956Z,75.11
2022-10-11T12:13:48.400Z,74.33
2022-10-11T12:16:16.736Z,73.46
2022-10-11T12:18:49.896Z,73.95
2022-10-11T12:21:36.398Z,73.00
2022-10-11T12:24:15.009Z,72.67
2022-10-11T12:26:47.110Z,72.79
2022-10-11T12:29:28.670Z,72.69
2022-10-11T12:31:58.599Z,72.78
2022-10-11T12:34:38.414Z,73.33
2022-10-11T12:37:20.434Z,72.47
2022-10-11T12:39:53.009Z,72.17
2022-10-11T12:42:35.846Z,72.06
2022-10-11T12:45:11.957Z,72.82
2022-10-11T12:48:06.192Z,72.88
2022-10-11T12:50:41.766Z,73.21
2022-10-11T12:53:37.749Z,73.42
2022-10-11T12:56:27.180Z,72.52
2022-10-11T12:59:03.203Z,72.55
2022-10-11T13:01:51.258Z,73.07
2022-10-11T13:04:22.186Z,73.48
2022-10-11T13:07:13.105Z,72.78
2022-10-11T13:09:43.249Z,73.31
2022-10-11T13:12:17.943Z,73.09
2022-10-11T13:14:48.282Z,73.28
2022-10-11T13:17:32.248Z,73.22
2022-10-11T13:20:07.390Z,72.97
2022-10-11T13:22:38.613Z,72.98
2022-10-11T13:25:07.538Z,73.31
2022-10-11T13:27:36.180Z,72.93
2022-10-11T13:30:08.675Z,73.07
2022-10-11T13:32:36.526Z,72.69
2022-10-11T13:35:06.690Z,72.85
2022-10-11T13:37:43.688Z,72.77
2022-10-11T13:40:15.235Z,72.82
2022-10-11T13:42:42.165Z,72.26
2022-10-11T13:45:19.075Z,71.53
2022-10-11T13:47:48.297Z,72.22
2022-10-11T13:50:14.772Z,71.64
2022-10-11T13:53:03.307Z,71.86
2022-10-11T13:55:42.029Z,72.20
2022-10-11T13:58:18.862Z,72.40
2022-10-11T14:00:58.681Z,72.26
2022-10-11T14:03:57.492Z,71.96
2022-10-11T14:06:24.417Z,72.77
2022-10-11T14:08:55.504Z,72.49
2022-10-11T14:11:37.593Z,72.81
2022-10-11T14:14:28.841Z,72.02
2022-10-11T14:17:11.948Z,72.53
2022-10-11T14:19:38.692Z,72.97
2022-10-11T14:22:06.889Z,72.37
2022-10-11T14:24:33.547Z,72.71
2022-10-11T14:27:03.697Z,72.57
2022-10-11T14:29:39.542Z,72.25
2022-10-11T14:32:10.564Z,72.53
2022-10-11T14:34:37.583Z,72.86
2022-10-11T14:37:04.144Z,72.96
2022-10-11T14:39:32.363Z,73.07
2022-10-11T14:41:59.402Z,72.93
2022-10-11T14:44:25.953Z,72.99
2022-10-11T14:46:54.815Z,72.49
2022-10-11T14:49:26.411Z,72.36
2022-10-11T14:51:54.449Z,72.09
2022-10-11T14:54:23.461Z,72.25
2022-10-11T14:56:51.948Z,72.48
2022-10-11T14:59:22.327Z,71.95
2022-10-11T15:01:53.959Z,72.46
2022-10-11T15:04:22.182Z,72.60
2022-10-11T15:06:49.371Z,72.57
2022-10-11T15:09:17.108Z,71.95
2022-10-11T15:11:44.036Z,72.91
2022-10-11T15:14:10.526Z,72.45
2022-10-11T15:16:37.142Z,72.55
2022-10-11T15:19:04.087Z,72.06
2022-10-11T15:21:30.902Z,72.08
2022-10-11T15:23:57.389Z,71.78
2022-10-11T15:26:26.526Z,71.84
2022-10-11T15:28:54.761Z,71.47
2022-10-11T15:31:22.553Z,71.30
2022-10-11T15:33:49.527Z,71.61
2022-10-11T15:36:19.325Z,71.78
2022-10-11T15:38:46.946Z,72.20
2022-10-11T15:41:15.901Z,71.82
2022-10-11T15:43:44.125Z,71.90
2022-10-11T15:46:17.413Z,71.69
2022-10-11T15:48:45.420Z,71.85
2022-10-11T15:51:12.450Z,71.64
2022-10-11T15:53:43.036Z,72.84
2022-10-11T15:56:15.419Z,72.07
2022-10-11T15:58:42.720Z,72.62
2022-10-11T16:01:17.270Z,72.37
2022-10-11T16:03:44.613Z,72.39
2022-10-11T16:06:11.837Z,72.27
2022-10-11T16:08:39.138Z,72.85
2022-10-11T16:11:07.405Z,72.20
2022-10-11T16:13:34.691Z,73.02
2022-10-11T16:16:02.836Z,72.30
2022-10-11T16:18:34.857Z,72.37
2022-10-11T16:21:06.929Z,73.09
2022-10-11T16:23:33.768Z,72.86
2022-10-11T16:26:04.409Z,72.86
2022-10-11T16:28:32.031Z,72.33
2022-10-11T16:30:58.939Z,72.63
2022-10-11T16:33:25.503Z,72.64
2022-10-11T16:35:52.284Z,72.86
2022-10-11T16:38:18.819Z,73.53
2022-10-11T16:40:45.316Z,72.52
2022-10-11T16:43:12.088Z,72.81
2022-10-11T16:45:38.661Z,72.75
2022-10-11T16:48:05.680Z,72.74
2022-10-11T16:50:36.848Z,73.57
2022-10-11T16:53:05.942Z,73.30
2022-10-11T16:55:32.598Z,73.86
2022-10-11T16:57:59.071Z,72.98
2022-10-11T17:00:25.679Z,73.43
2022-10-11T17:02:52.290Z,73.36
2022-10-11T17:05:18.903Z,72.95
2022-10-11T17:07:45.439Z,74.08
2022-10-11T17:10:11.925Z,73.27
2022-10-11T17:12:38.737Z,73.83
2022-10-11T17:15:06.344Z,73.33
2022-10-11T17:17:33.040Z,73.77
2022-10-11T17:19:59.769Z,73.72
2022-10-11T17:22:26.705Z,73.55
2022-10-11T17:24:53.243Z,74.57
2022-10-11T17:27:20.174Z,72.66
2022-10-11T17:29:47.260Z,72.79
2022-10-11T17:32:13.746Z,74.13
2022-10-11T17:34:40.500Z,73.64
2022-10-11T17:37:09.884Z,73.88
2022-10-11T17:39:36.574Z,73.96
2022-10-11T17:42:07.235Z,74.84
2022-10-11T17:44:34.716Z,74.96
2022-10-11T17:47:02.513Z,74.53
2022-10-11T17:49:29.176Z,74.83
2022-10-11T17:51:56.682Z,74.77
2022-10-11T17:54:24.203Z,75.27
2022-10-11T17:56:51.069Z,75.26
2022-10-11T17:59:21.465Z,75.57
2022-10-11T18:01:50.214Z,75.87
2022-10-11T18:04:19.521Z,75.43
2022-10-11T18:06:47.240Z,75.41
2022-10-11T18:09:17.396Z,76.22
2022-10-11T18:11:44.039Z,75.45
2022-10-11T18:14:10.690Z,75.96
2022-10-11T18:16:38.730Z,76.22
2022-10-11T18:19:08.159Z,75.56
2022-10-11T18:21:35.212Z,75.73
2022-10-11T18:24:03.576Z,76.36
2022-10-11T18:26:39.029Z,75.87
2022-10-11T18:29:05.823Z,75.94
2022-10-11T18:31:34.973Z,75.64
2022-10-11T18:34:05.967Z,76.72
2022-10-11T18:36:32.765Z,75.64
2022-10-11T18:39:02.498Z,76.38
2022-10-11T18:41:31.582Z,76.56
2022-10-11T18:44:04.029Z,76.77
2022-10-11T18:46:31.928Z,77.07
2022-10-11T18:49:05.430Z,76.87
2022-10-11T18:51:43.466Z,76.69
2022-10-11T18:54:36.666Z,76.74
2022-10-11T18:57:10.629Z,75.88
2022-10-11T18:59:37.194Z,75.82
2022-10-11T19:02:04.847Z,76.54
2022-10-11T19:04:34.208Z,76.59
2022-10-11T19:07:00.922Z,76.50
2022-10-11T19:09:28.779Z,76.54
2022-10-11T19:11:56.918Z,76.30
2022-10-11T19:14:26.730Z,76.43
2022-10-11T19:16:53.796Z,76.82
2022-10-11T19:19:24.184Z,77.81
2022-10-11T19:21:51.563Z,77.44
2022-10-11T19:24:20.376Z,77.22
2022-10-11T19:26:47.222Z,77.51
2022-10-11T19:29:18.949Z,77.53
2022-10-11T19:31:51.233Z,76.66
2022-10-11T19:34:29.030Z,77.12
2022-10-11T19:37:08.383Z,77.15
2022-10-11T19:39:35.033Z,77.19
2022-10-11T19:42:04.301Z,78.03
2022-10-11T19:44:34.445Z,77.76
2022-10-11T19:47:05.389Z,77.11
2022-10-11T19:49:32.219Z,78.07
2022-10-11T19:52:07.311Z,77.09
2022-10-11T19:54:34.396Z,77.80
2022-10-11T19:57:01.024Z,77.86
2022-10-11T19:59:28.104Z,77.70
2022-10-11T20:01:54.744Z,78.10
2022-10-11T20:04:50.539Z,78.48
2022-10-11T20:07:10.291Z,78.78
2022-10-11T20:09:37.053Z,77.62
2022-10-11T20:12:03.760Z,78.40
2022-10-11T20:14:30.406Z,78.71
2022-10-11T20:16:57.327Z,78.18
2022-10-11T20:19:30.645Z,78.42
2022-10-11T20:21:59.104Z,77.63
2022-10-11T20:24:28.860Z,77.87
2022-10-11T20:26:55.548Z,78.41
2022-10-11T20:29:24.165Z,77.95
2022-10-11T20:31:51.254Z,78.28
2022-10-11T20:34:18.033Z,78.27
2022-10-11T20:36:48.885Z,77.87
2022-10-11T20:39:15.928Z,78.63
2022-10-11T20:41:42.791Z,78.59
2022-10-11T20:44:16.108Z,78.34
2022-10-11T20:46:49.757Z,77.90
2022-10-11T20:49:27.761Z,77.78
2022-10-11T20:52:06.600Z,78.35
2022-10-11T20:54:48.820Z,78.49
2022-10-11T20:57:32.900Z,78.01
2022-10-11T21:00:00.113Z,78.06
2022-10-11T21:02:27.771Z,78.86
2022-10-11T21:05:07.547Z,79.02
2022-10-11T21:07:48.014Z,78.64
2022-10-11T21:10:24.979Z,79.38
2022-10-11T21:12:55.638Z,78.71
2022-10-11T21:15:22.339Z,78.70
2022-10-11T21:17:56.488Z,78.90
2022-10-11T21:20:47.998Z,78.60
2022-10-11T21:23:26.341Z,79.29
2022-10-11T21:26:11.248Z,79.11
2022-10-11T21:28:56.362Z,78.21
2022-10-11T21:31:35.688Z,79.29
2022-10-11T21:34:05.078Z,78.39
2022-10-11T21:36:31.782Z,79.13
2022-10-11T21:38:58.449Z,79.21
2022-10-11T21:41:26.365Z,79.62
2022-10-11T21:43:53.068Z,79.27
2022-10-11T21:46:32.471Z,79.33
2022-10-11T21:49:08.610Z,78.32
2022-10-11T21:51:35.414Z,79.53
2022-10-11T21:54:01.943Z,79.44
2022-10-11T21:56:28.763Z,79.19
2022-10-11T21:58:55.639Z,78.61
2022-10-11T22:01:22.439Z,79.21
2022-10-11T22:07:28.789Z,78.83
2022-10-11T22:09:39.648Z,78.42
2022-10-11T22:12:06.864Z,79.20
2022-10-11T22:14:33.578Z,79.82
2022-10-11T22:17:00.085Z,78.95
2022-10-11T22:19:26.763Z,78.98
2022-10-11T22:21:53.913Z,79.03
2022-10-11T22:24:27.455Z,79.44
2022-10-11T22:26:59.332Z,79.13
2022-10-11T22:29:33.875Z,79.13
2022-10-11T22:32:00.864Z,79.40
2022-10-11T22:34:31.566Z,79.23
2022-10-11T22:36:58.150Z,79.11
2022-10-11T22:39:24.778Z,78.48
2022-10-11T22:41:53.884Z,79.41
2022-10-11T22:44:21.147Z,78.75
2022-10-11T22:46:48.951Z,79.55
2022-10-11T22:49:16.019Z,79.00
2022-10-11T22:51:42.565Z,79.33
2022-10-11T22:54:09.081Z,79.47
2022-10-11T22:57:59.194Z,79.37
2022-10-11T23:01:53.264Z,78.75
2022-10-11T23:03:46.205Z,79.42
2022-10-11T23:06:42.189Z,79.38
2022-10-11T23:09:08.698Z,78.99
2022-10-11T23:11:35.332Z,79.23
2022-10-11T23:14:01.856Z,78.98
2022-10-11T23:16:28.392Z,78.75
2022-10-11T23:19:00.316Z,79.97
2022-10-11T23:21:35.560Z,79.84
2022-10-11T23:24:02.102Z,79.58
2022-10-11T23:26:28.656Z,79.75
2022-10-11T23:28:55.499Z,80.20
2022-10-11T23:31:22.394Z,79.87
2022-10-11T23:33:49.240Z,80.12
2022-10-11T23:36:15.739Z,80.21
2022-10-11T23:38:42.371Z,79.62
2022-10-11T23:41:08.936Z,80.52
2022-10-11T23:43:35.556Z,79.74
2022-10-11T23:46:02.232Z,79.92
2022-10-11T23:48:28.842Z,80.25
2022-10-11T23:50:55.414Z,79.54
2022-10-11T23:53:21.985Z,80.10
2022-10-11T23:55:48.606Z,79.78
2022-10-11T23:58:15.166Z,79.78
